sensor_id;sensor_type;location;lat;lon;timestamp;temperature;humidity
69932;DHT22;57243;52.064;5.116;2022-08-19T00:01:47;25.80;57.50
69932;DHT22;57243;52.064;5.116;2022-08-19T00:04:15;25.80;57.50
69932;DHT22;57243;52.064;5.116;2022-08-19T00:06:43;25.80;57.40
69932;DHT22;57243;52.064;5.116;2022-08-19T00:09:11;25.80;57.50
69932;DHT22;57243;52.064;5.116;2022-08-19T00:11:37;25.70;57.40
69932;DHT22;57243;52.064;5.116;2022-08-19T00:14:04;25.70;57.50
69932;DHT22;57243;52.064;5.116;2022-08-19T00:16:31;25.80;57.50
69932;DHT22;57243;52.064;5.116;2022-08-19T00:18:57;25.70;57.50
69932;DHT22;57243;52.064;5.116;2022-08-19T00:21:24;25.70;57.50
69932;DHT22;57243;52.064;5.116;2022-08-19T00:23:51;25.70;57.50
69932;DHT22;57243;52.064;5.116;2022-08-19T00:26:17;25.70;57.50
69932;DHT22;57243;52.064;5.116;2022-08-19T00:28:42;25.70;57.40
69932;DHT22;57243;52.064;5.116;2022-08-19T00:31:08;25.80;57.50
69932;DHT22;57243;52.064;5.116;2022-08-19T00:33:34;25.80;57.50
69932;DHT22;57243;52.064;5.116;2022-08-19T00:36:01;25.80;57.50
69932;DHT22;57243;52.064;5.116;2022-08-19T00:38:28;25.80;57.50
69932;DHT22;57243;52.064;5.116;2022-08-19T00:40:54;25.70;57.50
69932;DHT22;57243;52.064;5.116;2022-08-19T00:43:22;25.70;57.50
69932;DHT22;57243;52.064;5.116;2022-08-19T00:45:47;25.70;57.40
69932;DHT22;57243;52.064;5.116;2022-08-19T00:48:14;25.70;57.50
69932;DHT22;57243;52.064;5.116;2022-08-19T00:50:40;25.70;57.50
69932;DHT22;57243;52.064;5.116;2022-08-19T00:53:12;25.70;57.50
69932;DHT22;57243;52.064;5.116;2022-08-19T00:55:43;25.70;57.50
69932;DHT22;57243;52.064;5.116;2022-08-19T00:58:12;25.80;57.50
69932;DHT22;57243;52.064;5.116;2022-08-19T01:00:39;25.80;57.40
69932;DHT22;57243;52.064;5.116;2022-08-19T01:03:07;25.80;57.40
69932;DHT22;57243;52.064;5.116;2022-08-19T01:05:33;25.80;57.50
69932;DHT22;57243;52.064;5.116;2022-08-19T01:08:02;25.70;57.50
69932;DHT22;57243;52.064;5.116;2022-08-19T01:10:32;25.70;57.50
69932;DHT22;57243;52.064;5.116;2022-08-19T01:12:59;25.70;57.50
69932;DHT22;57243;52.064;5.116;2022-08-19T01:15:31;25.70;57.50
69932;DHT22;57243;52.064;5.116;2022-08-19T01:18:00;25.70;57.50
69932;DHT22;57243;52.064;5.116;2022-08-19T01:20:26;25.70;57.50
69932;DHT22;57243;52.064;5.116;2022-08-19T01:22:55;25.70;57.50
69932;DHT22;57243;52.064;5.116;2022-08-19T01:25:26;25.70;57.50
69932;DHT22;57243;52.064;5.116;2022-08-19T01:27:53;25.70;57.50
69932;DHT22;57243;52.064;5.116;2022-08-19T01:30:25;25.70;57.50
69932;DHT22;57243;52.064;5.116;2022-08-19T01:32:52;25.70;57.50
69932;DHT22;57243;52.064;5.116;2022-08-19T01:35:20;25.80;57.50
69932;DHT22;57243;52.064;5.116;2022-08-19T01:37:52;25.70;57.50
69932;DHT22;57243;52.064;5.116;2022-08-19T01:40:20;25.70;57.50
69932;DHT22;57243;52.064;5.116;2022-08-19T01:42:50;25.70;57.50
69932;DHT22;57243;52.064;5.116;2022-08-19T01:45:17;25.70;57.50
69932;DHT22;57243;52.064;5.116;2022-08-19T01:47:43;25.70;57.50
69932;DHT22;57243;52.064;5.116;2022-08-19T01:50:10;25.70;57.40
69932;DHT22;57243;52.064;5.116;2022-08-19T01:52:37;25.70;57.50
69932;DHT22;57243;52.064;5.116;2022-08-19T01:55:05;25.70;57.40
69932;DHT22;57243;52.064;5.116;2022-08-19T01:57:31;25.70;57.50
69932;DHT22;57243;52.064;5.116;2022-08-19T01:59:57;25.70;57.50
69932;DHT22;57243;52.064;5.116;2022-08-19T02:02:23;25.70;57.40
69932;DHT22;57243;52.064;5.116;2022-08-19T02:04:49;25.70;57.50
69932;DHT22;57243;52.064;5.116;2022-08-19T02:07:15;25.70;57.50
69932;DHT22;57243;52.064;5.116;2022-08-19T02:09:43;25.70;57.50
69932;DHT22;57243;52.064;5.116;2022-08-19T02:12:09;25.70;57.50
69932;DHT22;57243;52.064;5.116;2022-08-19T02:14:36;25.70;57.50
69932;DHT22;57243;52.064;5.116;2022-08-19T02:17:02;25.70;57.50
69932;DHT22;57243;52.064;5.116;2022-08-19T02:19:28;25.70;57.40
69932;DHT22;57243;52.064;5.116;2022-08-19T02:21:54;25.70;57.40
69932;DHT22;57243;52.064;5.116;2022-08-19T02:24:19;25.70;57.40
69932;DHT22;57243;52.064;5.116;2022-08-19T02:26:45;25.70;57.50
69932;DHT22;57243;52.064;5.116;2022-08-19T02:29:10;25.70;57.40
69932;DHT22;57243;52.064;5.116;2022-08-19T02:31:36;25.70;57.40
69932;DHT22;57243;52.064;5.116;2022-08-19T02:34:02;25.70;57.40
69932;DHT22;57243;52.064;5.116;2022-08-19T02:36:27;25.70;57.40
69932;DHT22;57243;52.064;5.116;2022-08-19T02:38:53;25.70;57.50
69932;DHT22;57243;52.064;5.116;2022-08-19T02:41:24;25.70;57.50
69932;DHT22;57243;52.064;5.116;2022-08-19T02:43:50;25.70;57.50
69932;DHT22;57243;52.064;5.116;2022-08-19T02:46:23;25.70;57.40
69932;DHT22;57243;52.064;5.116;2022-08-19T02:48:51;25.70;57.50
69932;DHT22;57243;52.064;5.116;2022-08-19T02:51:20;25.70;57.50
69932;DHT22;57243;52.064;5.116;2022-08-19T02:53:46;25.70;57.40
69932;DHT22;57243;52.064;5.116;2022-08-19T02:56:11;25.70;57.50
69932;DHT22;57243;52.064;5.116;2022-08-19T02:58:38;25.70;57.50
69932;DHT22;57243;52.064;5.116;2022-08-19T03:01:03;25.70;57.40
69932;DHT22;57243;52.064;5.116;2022-08-19T03:03:29;25.70;57.40
69932;DHT22;57243;52.064;5.116;2022-08-19T03:06:12;25.70;57.40
69932;DHT22;57243;52.064;5.116;2022-08-19T03:08:42;25.70;57.40
69932;DHT22;57243;52.064;5.116;2022-08-19T03:11:27;25.70;57.40
69932;DHT22;57243;52.064;5.116;2022-08-19T03:13:54;25.70;57.40
69932;DHT22;57243;52.064;5.116;2022-08-19T03:16:22;25.70;57.40
69932;DHT22;57243;52.064;5.116;2022-08-19T03:18:49;25.70;57.40
69932;DHT22;57243;52.064;5.116;2022-08-19T03:21:23;25.70;57.40
69932;DHT22;57243;52.064;5.116;2022-08-19T03:23:50;25.70;57.40
69932;DHT22;57243;52.064;5.116;2022-08-19T03:26:18;25.70;57.40
69932;DHT22;57243;52.064;5.116;2022-08-19T03:28:45;25.70;57.40
69932;DHT22;57243;52.064;5.116;2022-08-19T03:31:16;25.70;57.40
69932;DHT22;57243;52.064;5.116;2022-08-19T03:33:42;25.70;57.40
69932;DHT22;57243;52.064;5.116;2022-08-19T03:36:10;25.70;57.40
69932;DHT22;57243;52.064;5.116;2022-08-19T03:38:38;25.70;57.40
69932;DHT22;57243;52.064;5.116;2022-08-19T03:41:11;25.70;57.40
69932;DHT22;57243;52.064;5.116;2022-08-19T03:43:39;25.70;57.40
69932;DHT22;57243;52.064;5.116;2022-08-19T03:46:08;25.70;57.40
69932;DHT22;57243;52.064;5.116;2022-08-19T03:48:37;25.70;57.40
69932;DHT22;57243;52.064;5.116;2022-08-19T03:51:04;25.70;57.40
69932;DHT22;57243;52.064;5.116;2022-08-19T03:53:30;25.70;57.40
69932;DHT22;57243;52.064;5.116;2022-08-19T03:55:57;25.70;57.40
69932;DHT22;57243;52.064;5.116;2022-08-19T03:58:26;25.70;57.40
69932;DHT22;57243;52.064;5.116;2022-08-19T04:00:53;25.70;57.40
69932;DHT22;57243;52.064;5.116;2022-08-19T04:03:18;25.60;57.40
69932;DHT22;57243;52.064;5.116;2022-08-19T04:05:45;25.60;57.50
69932;DHT22;57243;52.064;5.116;2022-08-19T04:08:12;25.60;57.40
69932;DHT22;57243;52.064;5.116;2022-08-19T04:10:38;25.60;57.40
69932;DHT22;57243;52.064;5.116;2022-08-19T04:13:05;25.60;57.40
69932;DHT22;57243;52.064;5.116;2022-08-19T04:15:32;25.60;57.40
69932;DHT22;57243;52.064;5.116;2022-08-19T04:18:04;25.70;57.40
69932;DHT22;57243;52.064;5.116;2022-08-19T04:20:40;25.60;57.30
69932;DHT22;57243;52.064;5.116;2022-08-19T04:23:06;25.70;57.30
69932;DHT22;57243;52.064;5.116;2022-08-19T04:25:40;25.70;57.30
69932;DHT22;57243;52.064;5.116;2022-08-19T04:28:06;25.60;57.30
69932;DHT22;57243;52.064;5.116;2022-08-19T04:30:44;25.60;57.30
69932;DHT22;57243;52.064;5.116;2022-08-19T04:33:12;25.60;57.30
69932;DHT22;57243;52.064;5.116;2022-08-19T04:35:40;25.60;57.30
69932;DHT22;57243;52.064;5.116;2022-08-19T04:38:07;25.60;57.30
69932;DHT22;57243;52.064;5.116;2022-08-19T04:40:33;25.60;57.30
69932;DHT22;57243;52.064;5.116;2022-08-19T04:43:17;25.60;57.40
69932;DHT22;57243;52.064;5.116;2022-08-19T04:45:44;25.60;57.30
69932;DHT22;57243;52.064;5.116;2022-08-19T04:48:11;25.60;57.30
69932;DHT22;57243;52.064;5.116;2022-08-19T04:50:40;25.60;57.30
69932;DHT22;57243;52.064;5.116;2022-08-19T04:53:07;25.60;57.30
69932;DHT22;57243;52.064;5.116;2022-08-19T04:55:32;25.60;57.30
69932;DHT22;57243;52.064;5.116;2022-08-19T04:57:59;25.60;57.30
69932;DHT22;57243;52.064;5.116;2022-08-19T05:00:25;25.60;57.30
69932;DHT22;57243;52.064;5.116;2022-08-19T05:02:50;25.60;57.30
69932;DHT22;57243;52.064;5.116;2022-08-19T05:05:16;25.60;57.30
69932;DHT22;57243;52.064;5.116;2022-08-19T05:07:42;25.60;57.30
69932;DHT22;57243;52.064;5.116;2022-08-19T05:10:08;25.60;57.30
69932;DHT22;57243;52.064;5.116;2022-08-19T05:12:34;25.60;57.30
69932;DHT22;57243;52.064;5.116;2022-08-19T05:14:59;25.60;57.30
69932;DHT22;57243;52.064;5.116;2022-08-19T05:17:26;25.60;57.30
69932;DHT22;57243;52.064;5.116;2022-08-19T05:19:52;25.60;57.30
69932;DHT22;57243;52.064;5.116;2022-08-19T05:22:37;25.60;57.30
69932;DHT22;57243;52.064;5.116;2022-08-19T05:25:06;25.60;57.30
69932;DHT22;57243;52.064;5.116;2022-08-19T05:27:32;25.60;57.40
69932;DHT22;57243;52.064;5.116;2022-08-19T05:29:58;25.60;57.30
69932;DHT22;57243;52.064;5.116;2022-08-19T05:32:24;25.60;57.30
69932;DHT22;57243;52.064;5.116;2022-08-19T05:34:50;25.60;57.30
69932;DHT22;57243;52.064;5.116;2022-08-19T05:37:15;25.60;57.30
69932;DHT22;57243;52.064;5.116;2022-08-19T05:39:42;25.60;57.40
69932;DHT22;57243;52.064;5.116;2022-08-19T05:42:10;25.60;57.40
69932;DHT22;57243;52.064;5.116;2022-08-19T05:44:38;25.60;57.40
69932;DHT22;57243;52.064;5.116;2022-08-19T05:47:06;25.60;57.40
69932;DHT22;57243;52.064;5.116;2022-08-19T05:49:32;25.60;57.40
69932;DHT22;57243;52.064;5.116;2022-08-19T05:52:02;25.60;57.30
69932;DHT22;57243;52.064;5.116;2022-08-19T05:54:28;25.60;57.40
69932;DHT22;57243;52.064;5.116;2022-08-19T05:56:55;25.60;57.40
69932;DHT22;57243;52.064;5.116;2022-08-19T05:59:21;25.60;57.40
69932;DHT22;57243;52.064;5.116;2022-08-19T06:01:48;25.60;57.40
69932;DHT22;57243;52.064;5.116;2022-08-19T06:04:17;25.60;57.50
69932;DHT22;57243;52.064;5.116;2022-08-19T06:06:45;25.60;57.40
69932;DHT22;57243;52.064;5.116;2022-08-19T06:09:12;25.60;57.40
69932;DHT22;57243;52.064;5.116;2022-08-19T06:11:44;25.60;57.50
69932;DHT22;57243;52.064;5.116;2022-08-19T06:14:16;25.60;57.40
69932;DHT22;57243;52.064;5.116;2022-08-19T06:16:43;25.60;57.50
69932;DHT22;57243;52.064;5.116;2022-08-19T06:19:11;25.60;57.40
69932;DHT22;57243;52.064;5.116;2022-08-19T06:21:40;25.60;57.40
69932;DHT22;57243;52.064;5.116;2022-08-19T06:24:08;25.60;57.40
69932;DHT22;57243;52.064;5.116;2022-08-19T06:26:36;25.60;57.50
69932;DHT22;57243;52.064;5.116;2022-08-19T06:29:04;25.60;57.50
69932;DHT22;57243;52.064;5.116;2022-08-19T06:31:31;25.60;57.50
69932;DHT22;57243;52.064;5.116;2022-08-19T06:34:00;25.60;57.40
69932;DHT22;57243;52.064;5.116;2022-08-19T06:36:34;25.60;57.50
69932;DHT22;57243;52.064;5.116;2022-08-19T06:39:03;25.60;57.50
69932;DHT22;57243;52.064;5.116;2022-08-19T06:41:29;25.60;57.50
69932;DHT22;57243;52.064;5.116;2022-08-19T06:43:56;25.60;57.50
69932;DHT22;57243;52.064;5.116;2022-08-19T06:46:22;25.60;57.50
69932;DHT22;57243;52.064;5.116;2022-08-19T06:48:47;25.60;57.60
69932;DHT22;57243;52.064;5.116;2022-08-19T06:51:15;25.60;57.50
69932;DHT22;57243;52.064;5.116;2022-08-19T06:53:51;25.60;57.60
69932;DHT22;57243;52.064;5.116;2022-08-19T06:56:19;25.60;57.60
69932;DHT22;57243;52.064;5.116;2022-08-19T06:58:46;25.60;57.50
69932;DHT22;57243;52.064;5.116;2022-08-19T07:01:13;25.70;57.50
69932;DHT22;57243;52.064;5.116;2022-08-19T07:03:39;25.60;57.50
69932;DHT22;57243;52.064;5.116;2022-08-19T07:06:12;25.60;57.50
69932;DHT22;57243;52.064;5.116;2022-08-19T07:08:40;25.60;57.50
69932;DHT22;57243;52.064;5.116;2022-08-19T07:11:11;25.60;57.50
69932;DHT22;57243;52.064;5.116;2022-08-19T07:13:39;25.60;57.50
69932;DHT22;57243;52.064;5.116;2022-08-19T07:16:09;25.60;57.50
69932;DHT22;57243;52.064;5.116;2022-08-19T07:18:36;25.60;57.50
69932;DHT22;57243;52.064;5.116;2022-08-19T07:21:06;25.60;57.50
69932;DHT22;57243;52.064;5.116;2022-08-19T07:23:32;25.60;57.50
69932;DHT22;57243;52.064;5.116;2022-08-19T07:25:58;25.60;57.60
69932;DHT22;57243;52.064;5.116;2022-08-19T07:28:29;25.60;57.60
69932;DHT22;57243;52.064;5.116;2022-08-19T07:30:54;25.60;57.60
69932;DHT22;57243;52.064;5.116;2022-08-19T07:33:25;25.60;57.60
69932;DHT22;57243;52.064;5.116;2022-08-19T07:35:52;25.60;57.60
69932;DHT22;57243;52.064;5.116;2022-08-19T07:38:17;25.60;57.50
69932;DHT22;57243;52.064;5.116;2022-08-19T07:40:44;25.60;57.50
69932;DHT22;57243;52.064;5.116;2022-08-19T07:43:11;25.70;57.60
69932;DHT22;57243;52.064;5.116;2022-08-19T07:45:36;25.70;57.60
69932;DHT22;57243;52.064;5.116;2022-08-19T07:48:02;25.70;57.60
69932;DHT22;57243;52.064;5.116;2022-08-19T07:50:29;25.60;57.50
69932;DHT22;57243;52.064;5.116;2022-08-19T07:52:54;25.60;57.60
69932;DHT22;57243;52.064;5.116;2022-08-19T07:55:23;25.60;57.50
69932;DHT22;57243;52.064;5.116;2022-08-19T07:57:49;25.60;57.60
69932;DHT22;57243;52.064;5.116;2022-08-19T08:00:15;25.60;57.60
69932;DHT22;57243;52.064;5.116;2022-08-19T08:02:40;25.60;57.60
69932;DHT22;57243;52.064;5.116;2022-08-19T08:05:08;25.70;57.50
69932;DHT22;57243;52.064;5.116;2022-08-19T08:07:52;25.70;57.60
69932;DHT22;57243;52.064;5.116;2022-08-19T08:10:36;25.60;57.60
69932;DHT22;57243;52.064;5.116;2022-08-19T08:13:03;25.60;57.60
69932;DHT22;57243;52.064;5.116;2022-08-19T08:15:31;25.60;57.60
69932;DHT22;57243;52.064;5.116;2022-08-19T08:17:56;25.70;57.60
69932;DHT22;57243;52.064;5.116;2022-08-19T08:20:23;25.60;57.60
69932;DHT22;57243;52.064;5.116;2022-08-19T08:22:48;25.60;57.60
69932;DHT22;57243;52.064;5.116;2022-08-19T08:25:33;25.60;57.60
69932;DHT22;57243;52.064;5.116;2022-08-19T08:28:01;25.70;57.60
69932;DHT22;57243;52.064;5.116;2022-08-19T08:30:29;25.70;57.60
69932;DHT22;57243;52.064;5.116;2022-08-19T08:32:55;25.70;57.60
69932;DHT22;57243;52.064;5.116;2022-08-19T08:35:23;25.70;57.60
69932;DHT22;57243;52.064;5.116;2022-08-19T08:37:50;25.70;57.50
69932;DHT22;57243;52.064;5.116;2022-08-19T08:43:02;25.70;57.50
69932;DHT22;57243;52.064;5.116;2022-08-19T08:45:30;25.70;57.60
69932;DHT22;57243;52.064;5.116;2022-08-19T08:48:02;25.70;57.50
69932;DHT22;57243;52.064;5.116;2022-08-19T08:50:34;25.70;57.50
69932;DHT22;57243;52.064;5.116;2022-08-19T08:53:02;25.70;57.50
69932;DHT22;57243;52.064;5.116;2022-08-19T08:55:31;25.70;57.50
69932;DHT22;57243;52.064;5.116;2022-08-19T08:58:07;25.70;57.50
69932;DHT22;57243;52.064;5.116;2022-08-19T09:00:40;25.70;57.50
69932;DHT22;57243;52.064;5.116;2022-08-19T09:03:17;25.70;57.50
69932;DHT22;57243;52.064;5.116;2022-08-19T09:05:47;25.70;57.50
69932;DHT22;57243;52.064;5.116;2022-08-19T09:08:58;25.70;57.50
69932;DHT22;57243;52.064;5.116;2022-08-19T09:15:29;25.80;57.40
69932;DHT22;57243;52.064;5.116;2022-08-19T09:17:25;25.80;57.40
69932;DHT22;57243;52.064;5.116;2022-08-19T09:22:26;25.80;57.50
69932;DHT22;57243;52.064;5.116;2022-08-19T09:24:52;25.70;57.50
69932;DHT22;57243;52.064;5.116;2022-08-19T09:27:19;25.80;57.50
69932;DHT22;57243;52.064;5.116;2022-08-19T09:29:46;25.70;57.40
69932;DHT22;57243;52.064;5.116;2022-08-19T09:32:14;25.70;57.50
69932;DHT22;57243;52.064;5.116;2022-08-19T09:34:39;25.80;57.50
69932;DHT22;57243;52.064;5.116;2022-08-19T09:37:05;25.80;57.40
69932;DHT22;57243;52.064;5.116;2022-08-19T09:39:31;25.80;57.50
69932;DHT22;57243;52.064;5.116;2022-08-19T09:41:57;25.70;57.50
69932;DHT22;57243;52.064;5.116;2022-08-19T09:44:23;25.80;57.50
69932;DHT22;57243;52.064;5.116;2022-08-19T09:46:49;25.70;57.40
69932;DHT22;57243;52.064;5.116;2022-08-19T09:49:18;25.80;57.40
69932;DHT22;57243;52.064;5.116;2022-08-19T09:51:50;25.80;57.50
69932;DHT22;57243;52.064;5.116;2022-08-19T09:54:17;25.80;57.50
69932;DHT22;57243;52.064;5.116;2022-08-19T09:56:43;25.80;57.50
69932;DHT22;57243;52.064;5.116;2022-08-19T09:59:09;25.80;57.50
69932;DHT22;57243;52.064;5.116;2022-08-19T10:01:37;25.80;57.40
69932;DHT22;57243;52.064;5.116;2022-08-19T10:04:03;25.80;57.50
69932;DHT22;57243;52.064;5.116;2022-08-19T10:06:34;25.80;57.50
69932;DHT22;57243;52.064;5.116;2022-08-19T10:09:00;25.80;57.40
69932;DHT22;57243;52.064;5.116;2022-08-19T10:11:26;25.80;57.50
69932;DHT22;57243;52.064;5.116;2022-08-19T10:13:53;25.80;57.40
69932;DHT22;57243;52.064;5.116;2022-08-19T10:16:21;25.80;57.40
69932;DHT22;57243;52.064;5.116;2022-08-19T10:18:48;25.80;57.40
69932;DHT22;57243;52.064;5.116;2022-08-19T10:21:18;25.80;57.40
69932;DHT22;57243;52.064;5.116;2022-08-19T10:23:48;25.80;57.40
69932;DHT22;57243;52.064;5.116;2022-08-19T10:26:17;25.80;57.50
69932;DHT22;57243;52.064;5.116;2022-08-19T10:28:43;25.80;57.40
69932;DHT22;57243;52.064;5.116;2022-08-19T10:31:25;25.80;57.50
69932;DHT22;57243;52.064;5.116;2022-08-19T10:33:51;25.90;57.50
69932;DHT22;57243;52.064;5.116;2022-08-19T10:36:25;25.90;57.50
69932;DHT22;57243;52.064;5.116;2022-08-19T10:38:53;25.80;57.60
69932;DHT22;57243;52.064;5.116;2022-08-19T10:41:22;25.80;57.50
69932;DHT22;57243;52.064;5.116;2022-08-19T10:43:51;25.80;57.50
69932;DHT22;57243;52.064;5.116;2022-08-19T10:46:18;25.90;57.50
69932;DHT22;57243;52.064;5.116;2022-08-19T10:48:44;25.90;57.50
69932;DHT22;57243;52.064;5.116;2022-08-19T10:51:11;25.90;57.40
69932;DHT22;57243;52.064;5.116;2022-08-19T10:53:56;25.90;57.50
69932;DHT22;57243;52.064;5.116;2022-08-19T10:56:22;25.90;57.50
69932;DHT22;57243;52.064;5.116;2022-08-19T10:59:06;25.90;57.50
69932;DHT22;57243;52.064;5.116;2022-08-19T11:01:33;25.80;57.50
69932;DHT22;57243;52.064;5.116;2022-08-19T11:04:01;25.80;57.50
69932;DHT22;57243;52.064;5.116;2022-08-19T11:06:27;25.90;57.50
69932;DHT22;57243;52.064;5.116;2022-08-19T11:08:54;25.90;57.50
69932;DHT22;57243;52.064;5.116;2022-08-19T11:11:20;25.80;57.60
69932;DHT22;57243;52.064;5.116;2022-08-19T11:13:47;25.80;57.60
69932;DHT22;57243;52.064;5.116;2022-08-19T11:16:20;25.80;57.60
69932;DHT22;57243;52.064;5.116;2022-08-19T11:18:50;25.80;57.70
69932;DHT22;57243;52.064;5.116;2022-08-19T11:21:26;25.80;57.60
69932;DHT22;57243;52.064;5.116;2022-08-19T11:23:54;25.80;57.60
69932;DHT22;57243;52.064;5.116;2022-08-19T11:26:21;25.80;57.60
69932;DHT22;57243;52.064;5.116;2022-08-19T11:28:47;25.80;57.60
69932;DHT22;57243;52.064;5.116;2022-08-19T11:31:18;25.80;57.70
69932;DHT22;57243;52.064;5.116;2022-08-19T11:33:45;25.80;57.70
69932;DHT22;57243;52.064;5.116;2022-08-19T11:36:11;25.80;57.70
69932;DHT22;57243;52.064;5.116;2022-08-19T11:38:37;25.80;57.80
69932;DHT22;57243;52.064;5.116;2022-08-19T11:41:06;25.80;57.80
69932;DHT22;57243;52.064;5.116;2022-08-19T11:43:33;25.80;57.80
69932;DHT22;57243;52.064;5.116;2022-08-19T11:45:59;25.80;57.70
69932;DHT22;57243;52.064;5.116;2022-08-19T11:48:25;25.80;57.80
69932;DHT22;57243;52.064;5.116;2022-08-19T11:50:53;25.80;57.80
69932;DHT22;57243;52.064;5.116;2022-08-19T11:53:23;25.80;57.80
69932;DHT22;57243;52.064;5.116;2022-08-19T11:55:49;25.80;57.80
69932;DHT22;57243;52.064;5.116;2022-08-19T11:58:16;25.80;57.70
69932;DHT22;57243;52.064;5.116;2022-08-19T12:00:43;25.80;57.70
69932;DHT22;57243;52.064;5.116;2022-08-19T12:03:11;25.80;57.70
69932;DHT22;57243;52.064;5.116;2022-08-19T12:05:38;25.80;57.80
69932;DHT22;57243;52.064;5.116;2022-08-19T12:08:04;25.80;57.80
69932;DHT22;57243;52.064;5.116;2022-08-19T12:10:30;25.80;57.80
69932;DHT22;57243;52.064;5.116;2022-08-19T12:12:55;25.80;57.80
69932;DHT22;57243;52.064;5.116;2022-08-19T12:15:21;25.80;57.80
69932;DHT22;57243;52.064;5.116;2022-08-19T12:17:46;25.80;57.80
69932;DHT22;57243;52.064;5.116;2022-08-19T12:20:13;25.80;57.80
69932;DHT22;57243;52.064;5.116;2022-08-19T12:22:42;25.80;58.00
69932;DHT22;57243;52.064;5.116;2022-08-19T12:25:10;25.80;58.00
69932;DHT22;57243;52.064;5.116;2022-08-19T12:27:36;25.80;58.00
69932;DHT22;57243;52.064;5.116;2022-08-19T12:30:03;25.90;57.90
69932;DHT22;57243;52.064;5.116;2022-08-19T12:32:29;25.90;57.90
69932;DHT22;57243;52.064;5.116;2022-08-19T12:34:55;25.90;57.90
69932;DHT22;57243;52.064;5.116;2022-08-19T12:37:21;25.90;57.90
69932;DHT22;57243;52.064;5.116;2022-08-19T12:39:46;25.80;57.80
69932;DHT22;57243;52.064;5.116;2022-08-19T12:42:13;25.90;57.90
69932;DHT22;57243;52.064;5.116;2022-08-19T12:44:40;25.80;57.80
69932;DHT22;57243;52.064;5.116;2022-08-19T12:47:07;25.80;57.80
69932;DHT22;57243;52.064;5.116;2022-08-19T12:49:33;25.80;57.80
69932;DHT22;57243;52.064;5.116;2022-08-19T12:52:00;25.80;57.90
69932;DHT22;57243;52.064;5.116;2022-08-19T12:54:26;25.80;57.80
69932;DHT22;57243;52.064;5.116;2022-08-19T12:56:52;25.80;57.80
69932;DHT22;57243;52.064;5.116;2022-08-19T12:59:18;25.80;57.80
69932;DHT22;57243;52.064;5.116;2022-08-19T13:01:44;25.80;57.90
69932;DHT22;57243;52.064;5.116;2022-08-19T13:04:10;25.80;57.90
69932;DHT22;57243;52.064;5.116;2022-08-19T13:06:35;25.80;57.80
69932;DHT22;57243;52.064;5.116;2022-08-19T13:09:01;25.80;57.80
69932;DHT22;57243;52.064;5.116;2022-08-19T13:11:27;25.80;57.80
69932;DHT22;57243;52.064;5.116;2022-08-19T13:13:57;25.80;57.80
69932;DHT22;57243;52.064;5.116;2022-08-19T13:16:23;25.80;57.90
69932;DHT22;57243;52.064;5.116;2022-08-19T13:18:49;25.80;57.90
69932;DHT22;57243;52.064;5.116;2022-08-19T13:21:18;25.80;57.90
69932;DHT22;57243;52.064;5.116;2022-08-19T13:23:45;25.80;57.90
69932;DHT22;57243;52.064;5.116;2022-08-19T13:26:12;25.80;58.00
69932;DHT22;57243;52.064;5.116;2022-08-19T13:28:38;25.80;57.90
69932;DHT22;57243;52.064;5.116;2022-08-19T13:31:25;25.80;58.00
69932;DHT22;57243;52.064;5.116;2022-08-19T13:34:10;25.80;58.10
69932;DHT22;57243;52.064;5.116;2022-08-19T13:36:36;25.80;58.10
69932;DHT22;57243;52.064;5.116;2022-08-19T13:39:03;25.80;58.20
69932;DHT22;57243;52.064;5.116;2022-08-19T13:41:29;25.80;58.10
69932;DHT22;57243;52.064;5.116;2022-08-19T13:43:54;25.80;58.20
69932;DHT22;57243;52.064;5.116;2022-08-19T13:46:20;25.80;58.20
69932;DHT22;57243;52.064;5.116;2022-08-19T13:48:47;25.80;58.20
69932;DHT22;57243;52.064;5.116;2022-08-19T13:51:14;25.80;58.20
69932;DHT22;57243;52.064;5.116;2022-08-19T13:53:42;25.80;58.20
69932;DHT22;57243;52.064;5.116;2022-08-19T13:56:12;25.80;58.20
69932;DHT22;57243;52.064;5.116;2022-08-19T13:58:38;25.80;58.30
69932;DHT22;57243;52.064;5.116;2022-08-19T14:01:05;25.80;58.20
69932;DHT22;57243;52.064;5.116;2022-08-19T14:03:32;25.80;58.20
69932;DHT22;57243;52.064;5.116;2022-08-19T14:05:59;25.80;58.20
69932;DHT22;57243;52.064;5.116;2022-08-19T14:08:25;25.80;58.30
69932;DHT22;57243;52.064;5.116;2022-08-19T14:10:51;25.80;58.30
69932;DHT22;57243;52.064;5.116;2022-08-19T14:13:19;25.80;58.30
69932;DHT22;57243;52.064;5.116;2022-08-19T14:15:46;25.80;58.30
69932;DHT22;57243;52.064;5.116;2022-08-19T14:18:13;25.80;58.30
69932;DHT22;57243;52.064;5.116;2022-08-19T14:20:38;25.80;58.30
69932;DHT22;57243;52.064;5.116;2022-08-19T14:23:04;25.80;58.30
69932;DHT22;57243;52.064;5.116;2022-08-19T14:25:32;25.80;58.30
69932;DHT22;57243;52.064;5.116;2022-08-19T14:28:00;25.80;58.30
69932;DHT22;57243;52.064;5.116;2022-08-19T14:30:28;25.80;58.40
69932;DHT22;57243;52.064;5.116;2022-08-19T14:32:55;25.80;58.40
69932;DHT22;57243;52.064;5.116;2022-08-19T14:35:21;25.80;58.30
69932;DHT22;57243;52.064;5.116;2022-08-19T14:37:48;25.80;58.40
69932;DHT22;57243;52.064;5.116;2022-08-19T14:40:16;25.80;58.40
69932;DHT22;57243;52.064;5.116;2022-08-19T14:42:43;25.80;58.30
69932;DHT22;57243;52.064;5.116;2022-08-19T14:45:10;25.80;58.30
69932;DHT22;57243;52.064;5.116;2022-08-19T14:47:36;25.80;58.40
69932;DHT22;57243;52.064;5.116;2022-08-19T14:50:03;25.80;58.40
69932;DHT22;57243;52.064;5.116;2022-08-19T14:52:28;25.80;58.40
69932;DHT22;57243;52.064;5.116;2022-08-19T14:54:54;25.80;58.40
69932;DHT22;57243;52.064;5.116;2022-08-19T14:57:19;25.80;58.40
69932;DHT22;57243;52.064;5.116;2022-08-19T14:59:45;25.80;58.40
69932;DHT22;57243;52.064;5.116;2022-08-19T15:02:11;25.80;58.40
69932;DHT22;57243;52.064;5.116;2022-08-19T15:04:37;25.90;58.50
69932;DHT22;57243;52.064;5.116;2022-08-19T15:07:03;25.80;58.50
69932;DHT22;57243;52.064;5.116;2022-08-19T15:09:31;25.90;58.60
69932;DHT22;57243;52.064;5.116;2022-08-19T15:11:56;25.80;58.50
69932;DHT22;57243;52.064;5.116;2022-08-19T15:14:24;25.90;58.50
69932;DHT22;57243;52.064;5.116;2022-08-19T15:16:50;25.90;58.50
69932;DHT22;57243;52.064;5.116;2022-08-19T15:19:15;25.80;58.50
69932;DHT22;57243;52.064;5.116;2022-08-19T15:21:41;25.80;58.50
69932;DHT22;57243;52.064;5.116;2022-08-19T15:24:06;25.90;58.50
69932;DHT22;57243;52.064;5.116;2022-08-19T15:26:32;25.80;58.50
69932;DHT22;57243;52.064;5.116;2022-08-19T15:28:59;25.80;58.50
69932;DHT22;57243;52.064;5.116;2022-08-19T15:31:26;25.80;58.50
69932;DHT22;57243;52.064;5.116;2022-08-19T15:33:52;25.80;58.50
69932;DHT22;57243;52.064;5.116;2022-08-19T15:36:21;25.80;58.50
69932;DHT22;57243;52.064;5.116;2022-08-19T15:38:48;25.80;58.50
69932;DHT22;57243;52.064;5.116;2022-08-19T15:41:26;25.80;58.60
69932;DHT22;57243;52.064;5.116;2022-08-19T15:44:00;25.80;58.60